Time;durP1;ratioP1;P1;durP2;ratioP2;P2;SDS_P1;SDS_P2;PMS_P1;PMS_P2;Temp;Humidity;BMP_temperature;BMP_pressure;BME280_temperature;BME280_humidity;BME280_pressure;Samples;Min_cycle;Max_cycle;Signal;HPM_P1;HPM_P2
2021/04/23 04:14:08;;;;;;;1.15;0.70;;;2.00;97.40;;;;;;5052934;28;20057;-68
2021/04/23 04:16:34;;;;;;;2.30;0.68;;;2.00;96.70;;;;;;5045038;28;20419;-68
2021/04/23 04:19:01;;;;;;;1.25;0.90;;;2.00;97.30;;;;;;5053780;28;20021;-68
2021/04/23 04:21:26;;;;;;;2.50;1.08;;;2.00;98.70;;;;;;5053531;28;20047;-68
2021/04/23 04:23:52;;;;;;;0.98;0.70;;;2.00;98.10;;;;;;5053871;28;20480;-68
2021/04/23 04:26:18;;;;;;;2.05;0.60;;;1.90;98.50;;;;;;5053398;28;20021;-68
2021/04/23 04:28:44;;;;;;;2.17;0.68;;;2.00;97.90;;;;;;5052079;28;20042;-67
2021/04/23 04:31:10;;;;;;;1.90;0.80;;;2.10;97.50;;;;;;5045776;28;20057;-66
2021/04/23 04:33:35;;;;;;;4.72;0.90;;;2.10;97.50;;;;;;5046759;28;20029;-67
2021/04/23 04:36:01;;;;;;;0.70;0.47;;;2.10;97.80;;;;;;5053162;28;20078;-65
2021/04/23 04:38:27;;;;;;;1.65;0.80;;;2.10;97.60;;;;;;5043728;28;20493;-66
2021/04/23 04:40:53;;;;;;;0.95;0.60;;;2.10;98.20;;;;;;5040430;28;20021;-67
2021/04/23 04:43:20;;;;;;;2.95;0.90;;;2.20;99.90;;;;;;5051100;28;20056;-66
2021/04/23 04:45:47;;;;;;;1.38;0.60;;;2.20;99.90;;;;;;5052818;28;20039;-65
2021/04/23 04:48:14;;;;;;;1.23;0.65;;;2.20;98.40;;;;;;5052761;28;20488;-66
2021/04/23 04:50:50;;;;;;;2.45;0.90;;;2.20;98.30;;;;;;5052642;28;20112;-67
2021/04/23 04:53:17;;;;;;;5.15;0.68;;;2.20;99.40;;;;;;5052635;28;20097;-66
2021/04/23 04:55:44;;;;;;;3.95;0.70;;;2.20;99.90;;;;;;5051542;28;20021;-66
2021/04/23 04:58:13;;;;;;;4.78;0.95;;;2.30;99.90;;;;;;5052215;28;20090;-66
2021/04/23 05:00:40;;;;;;;2.15;0.88;;;2.30;99.90;;;;;;5040915;28;20049;-67
2021/04/23 05:03:07;;;;;;;4.72;0.60;;;2.40;98.60;;;;;;5052069;28;20036;-67
2021/04/23 05:05:33;;;;;;;1.05;0.60;;;2.40;96.30;;;;;;5042163;28;20493;-67
2021/04/23 05:07:59;;;;;;;1.40;0.50;;;2.30;96.20;;;;;;5045686;28;20021;-67
2021/04/23 05:10:26;;;;;;;1.38;0.68;;;2.30;96.70;;;;;;5041930;28;20033;-67
2021/04/23 05:12:52;;;;;;;8.02;0.80;;;2.20;95.50;;;;;;5051890;28;20060;-67
2021/04/23 05:15:19;;;;;;;1.15;0.63;;;2.20;95.30;;;;;;5048350;28;20084;-67
2021/04/23 05:17:46;;;;;;;1.60;0.63;;;2.20;95.40;;;;;;5050822;28;20489;-67
2021/04/23 05:20:12;;;;;;;1.45;0.70;;;2.20;94.40;;;;;;5043702;28;20025;-67
2021/04/23 05:22:39;;;;;;;0.90;0.63;;;2.30;94.50;;;;;;5035473;28;20029;-66
2021/04/23 05:25:07;;;;;;;0.65;0.65;;;2.30;94.50;;;;;;5038413;28;20059;-66
2021/04/23 05:27:34;;;;;;;0.98;0.50;;;2.20;94.60;;;;;;5041972;28;20021;-64
2021/04/23 05:30:00;;;;;;;1.75;0.63;;;2.20;94.70;;;;;;5051195;28;20381;-66
2021/04/23 05:32:27;;;;;;;2.03;0.52;;;2.30;94.30;;;;;;5050949;28;20108;-66
2021/04/23 05:34:53;;;;;;;1.48;0.70;;;2.40;93.70;;;;;;5051192;28;20104;-67
2021/04/23 05:37:18;;;;;;;0.85;0.77;;;2.40;93.30;;;;;;5050740;28;20112;-67
2021/04/23 05:39:44;;;;;;;0.95;0.60;;;2.30;93.90;;;;;;5051311;28;20107;-67
2021/04/23 05:42:12;;;;;;;0.50;0.50;;;2.30;93.20;;;;;;5050995;28;20104;-67
2021/04/23 05:44:37;;;;;;;2.85;0.65;;;2.30;93.40;;;;;;5051006;28;20024;-67
2021/04/23 05:47:04;;;;;;;0.50;0.38;;;2.40;93.30;;;;;;5050725;28;21604;-67
2021/04/23 05:49:31;;;;;;;3.38;0.60;;;2.40;93.40;;;;;;5048151;28;20083;-67
2021/04/23 05:51:57;;;;;;;1.80;0.80;;;2.40;92.50;;;;;;5045898;28;20040;-67
2021/04/23 05:54:24;;;;;;;1.38;0.55;;;2.40;92.90;;;;;;5050787;28;20082;-67
2021/04/23 05:56:49;;;;;;;3.30;0.80;;;2.40;92.80;;;;;;5051212;28;20025;-67
2021/04/23 05:59:15;;;;;;;2.97;0.70;;;2.40;92.90;;;;;;5050637;28;20102;-67
2021/04/23 06:01:41;;;;;;;1.10;0.70;;;2.40;92.70;;;;;;5050555;28;20044;-67
2021/04/23 06:04:07;;;;;;;2.08;0.60;;;2.40;92.30;;;;;;5050599;28;20382;-66
2021/04/23 06:06:32;;;;;;;2.08;0.60;;;2.50;92.20;;;;;;5050628;28;20020;-66
2021/04/23 06:08:58;;;;;;;6.45;0.60;;;2.50;92.30;;;;;;5050787;28;20388;-66
2021/04/23 06:11:25;;;;;;;0.80;0.60;;;2.50;92.50;;;;;;5050469;28;20048;-71
2021/04/23 06:13:50;;;;;;;1.70;0.68;;;2.60;94.00;;;;;;5040109;28;20390;-71
2021/04/23 06:16:16;;;;;;;3.30;0.52;;;2.60;92.60;;;;;;5023002;28;722626;-70
2021/04/23 06:18:43;;;;;;;3.80;0.80;;;2.50;92.20;;;;;;5051631;28;20032;-70
2021/04/23 06:21:09;;;;;;;1.05;0.55;;;2.50;93.20;;;;;;5051350;28;20021;-70
2021/04/23 06:23:37;;;;;;;2.40;0.80;;;2.50;92.80;;;;;;5051736;28;20419;-70
2021/04/23 06:26:03;;;;;;;0.60;0.60;;;2.50;92.50;;;;;;5047646;28;20025;-69
2021/04/23 06:28:29;;;;;;;0.50;0.50;;;2.50;92.50;;;;;;5050187;28;20044;-69
2021/04/23 06:30:56;;;;;;;0.60;0.50;;;2.50;92.90;;;;;;5050686;28;20100;-69
2021/04/23 06:33:25;;;;;;;1.23;0.70;;;2.60;92.40;;;;;;5041927;28;20025;-65
2021/04/23 06:35:51;;;;;;;11.23;0.95;;;2.70;99.10;;;;;;5047538;28;20510;-69
2021/04/23 06:38:17;;;;;;;4.53;0.57;;;2.90;92.10;;;;;;5043787;28;20112;-69
2021/04/23 06:40:43;;;;;;;0.70;0.70;;;2.90;90.90;;;;;;5054449;28;20033;-69
2021/04/23 06:43:09;;;;;;;0.60;0.60;;;2.90;92.80;;;;;;5050835;28;20041;-69
2021/04/23 06:45:35;;;;;;;1.73;0.52;;;2.80;91.00;;;;;;5050130;28;20017;-69
2021/04/23 06:48:02;;;;;;;0.50;0.47;;;2.80;91.60;;;;;;5039441;28;20025;-70
2021/04/23 06:50:28;;;;;;;1.65;0.52;;;2.70;91.60;;;;;;5040788;28;20370;-71
2021/04/23 06:52:54;;;;;;;3.83;0.60;;;2.70;93.40;;;;;;5054829;28;20028;-70
2021/04/23 06:55:22;;;;;;;0.70;0.60;;;2.80;92.30;;;;;;5054558;28;20480;-65
2021/04/23 06:57:48;;;;;;;1.85;0.60;;;2.80;92.60;;;;;;5048285;28;20041;-67
2021/04/23 07:00:21;;;;;;;0.65;0.57;;;2.90;92.50;;;;;;5047191;28;20013;-69
2021/04/23 07:02:46;;;;;;;1.58;0.57;;;2.80;92.60;;;;;;5054982;28;20044;-65
2021/04/23 07:05:13;;;;;;;1.00;0.55;;;2.70;92.60;;;;;;5054770;28;20021;-68
2021/04/23 07:07:40;;;;;;;1.80;0.80;;;2.80;94.60;;;;;;5054105;28;20484;-68
2021/04/23 07:10:09;;;;;;;0.88;0.60;;;2.70;95.70;;;;;;5054440;28;20104;-72
2021/04/23 07:12:35;;;;;;;1.17;0.60;;;2.80;95.20;;;;;;5053837;28;20032;-69
2021/04/23 07:15:02;;;;;;;2.65;0.68;;;2.60;95.10;;;;;;5050623;28;20489;-70
2021/04/23 07:17:28;;;;;;;0.93;0.60;;;2.60;95.60;;;;;;5051947;28;20028;-67
2021/04/23 07:19:54;;;;;;;0.57;0.40;;;2.60;96.00;;;;;;5052000;28;20031;-68
2021/04/23 07:22:19;;;;;;;0.70;0.57;;;2.50;97.00;;;;;;5050689;28;20040;-67
2021/04/23 07:24:45;;;;;;;2.05;0.77;;;2.50;99.00;;;;;;5054146;28;20554;-67
2021/04/23 07:27:11;;;;;;;0.60;0.60;;;2.50;99.50;;;;;;5052310;28;20025;-68
2021/04/23 07:29:37;;;;;;;4.30;0.65;;;2.50;99.90;;;;;;5054076;28;20035;-67
2021/04/23 07:32:03;;;;;;;0.73;0.50;;;2.40;99.90;;;;;;5053549;28;20009;-67
2021/04/23 07:34:29;;;;;;;1.30;0.88;;;2.40;99.90;;;;;;5050931;28;20056;-67
2021/04/23 07:36:55;;;;;;;1.73;0.70;;;2.30;99.90;;;;;;5053667;28;20043;-67
2021/04/23 07:39:25;;;;;;;0.50;0.50;;;2.30;99.90;;;;;;5053627;28;20025;-67
2021/04/23 07:41:55;;;;;;;0.98;0.60;;;2.20;99.90;;;;;;5052700;28;20029;-67
2021/04/23 07:44:25;;;;;;;2.38;0.60;;;2.20;99.90;;;;;;5045867;28;20020;-67
2021/04/23 07:46:51;;;;;;;3.70;0.70;;;2.10;99.90;;;;;;5051047;28;20043;-67
2021/04/23 07:49:16;;;;;;;1.08;0.60;;;2.10;99.90;;;;;;5053862;28;20033;-67
2021/04/23 07:51:43;;;;;;;2.70;0.65;;;2.10;99.90;;;;;;5053519;28;20021;-67
2021/04/23 07:54:09;;;;;;;2.20;0.65;;;2.00;99.90;;;;;;5053894;28;20049;-67
2021/04/23 07:56:36;;;;;;;2.83;0.95;;;2.00;99.90;;;;;;5052980;28;20075;-67
2021/04/23 07:59:03;;;;;;;3.03;0.93;;;2.10;99.90;;;;;;5051720;28;20033;-65
2021/04/23 08:01:30;;;;;;;1.58;0.80;;;2.30;99.90;;;;;;5051137;28;20025;-67
2021/04/23 08:03:55;;;;;;;0.50;0.50;;;3.10;99.90;;;;;;5053492;28;20112;-67
2021/04/23 08:06:21;;;;;;;2.25;0.70;;;2.90;99.90;;;;;;5047142;28;20104;-69
2021/04/23 08:08:47;;;;;;;1.63;0.60;;;2.60;99.90;;;;;;5041589;28;20120;-68
2021/04/23 08:11:13;;;;;;;0.40;0.40;;;2.40;99.90;;;;;;5043857;28;20088;-68
2021/04/23 08:13:38;;;;;;;1.05;0.60;;;2.10;99.90;;;;;;5048129;28;20032;-68
2021/04/23 08:16:05;;;;;;;0.55;0.45;;;2.10;99.90;;;;;;5053115;28;20048;-68
2021/04/23 08:18:35;;;;;;;2.72;0.80;;;2.00;99.90;;;;;;5053305;28;20112;-67
2021/04/23 08:21:02;;;;;;;2.93;0.70;;;1.90;99.90;;;;;;5053900;28;20025;-68
2021/04/23 08:23:27;;;;;;;0.60;0.60;;;1.80;99.90;;;;;;5052847;28;20041;-67
2021/04/23 08:25:56;;;;;;;3.15;0.70;;;1.70;99.90;;;;;;5053592;28;20039;-67
2021/04/23 08:28:23;;;;;;;0.57;0.57;;;1.70;99.90;;;;;;5052820;28;20036;-67
2021/04/23 08:30:49;;;;;;;3.67;0.80;;;1.60;99.90;;;;;;5052482;28;20472;-67
2021/04/23 08:33:15;;;;;;;4.93;0.77;;;1.70;99.90;;;;;;5053142;28;20033;-68
2021/04/23 08:35:41;;;;;;;8.90;0.95;;;1.70;99.90;;;;;;5053097;28;20063;-68
2021/04/23 08:38:07;;;;;;;2.58;0.57;;;1.70;99.90;;;;;;5041265;28;20539;-68
2021/04/23 08:40:32;;;;;;;2.30;0.90;;;1.70;99.90;;;;;;5050072;28;20017;-68
2021/04/23 08:42:58;;;;;;;1.13;0.60;;;1.90;99.90;;;;;;5049377;28;20033;-68
2021/04/23 08:45:24;;;;;;;1.30;0.68;;;1.80;99.90;;;;;;5052677;28;20021;-68
2021/04/23 08:47:51;;;;;;;1.88;0.77;;;1.70;99.90;;;;;;5052744;28;20116;-68
2021/04/23 08:50:21;;;;;;;2.45;0.70;;;1.60;99.90;;;;;;5052645;28;20025;-68
2021/04/23 08:52:48;;;;;;;2.15;0.60;;;1.60;99.90;;;;;;5039868;28;20028;-69
2021/04/23 08:55:17;;;;;;;2.05;0.60;;;1.50;99.90;;;;;;5052998;28;20029;-69
2021/04/23 08:57:43;;;;;;;0.80;0.80;;;1.50;99.90;;;;;;5046885;28;20028;-69
2021/04/23 09:00:11;;;;;;;0.75;0.75;;;1.50;99.90;;;;;;5044383;28;20029;-69
2021/04/23 09:02:38;;;;;;;1.80;0.60;;;1.40;99.90;;;;;;5048767;28;20547;-68
2021/04/23 09:05:04;;;;;;;1.13;0.60;;;1.40;99.90;;;;;;5033129;28;20496;-69
2021/04/23 09:07:30;;;;;;;1.60;0.60;;;1.30;99.90;;;;;;5034058;28;20021;-69
2021/04/23 09:10:10;;;;;;;2.00;0.75;;;1.40;99.90;;;;;;5052627;28;20028;-69
2021/04/23 09:12:36;;;;;;;1.20;0.70;;;1.30;99.90;;;;;;5052720;28;20021;-70
2021/04/23 09:15:05;;;;;;;1.77;1.00;;;1.40;99.90;;;;;;5052225;28;20039;-70
2021/04/23 09:17:31;;;;;;;0.60;0.60;;;1.30;99.90;;;;;;5052118;28;20033;-70
2021/04/23 09:19:58;;;;;;;1.38;0.80;;;1.40;99.90;;;;;;5052441;28;20025;-70
2021/04/23 09:22:31;;;;;;;2.05;0.70;;;1.30;99.90;;;;;;5041465;28;20112;-69
2021/04/23 09:24:59;;;;;;;0.82;0.80;;;1.30;99.90;;;;;;5050769;28;20029;-69
2021/04/23 09:27:31;;;;;;;6.68;0.93;;;1.30;99.90;;;;;;5051020;28;20032;-69
2021/04/23 09:29:59;;;;;;;1.67;0.93;;;1.20;99.90;;;;;;5051707;28;20028;-69
2021/04/23 09:32:34;;;;;;;4.43;0.93;;;1.20;99.90;;;;;;5043377;28;20058;-69
2021/04/23 09:35:19;;;;;;;3.05;0.90;;;1.20;99.90;;;;;;5049846;28;20076;-69
2021/04/23 09:37:45;;;;;;;1.80;0.70;;;1.20;99.90;;;;;;5051814;28;20060;-69
2021/04/23 09:40:21;;;;;;;1.30;0.73;;;1.20;99.90;;;;;;5051650;28;20071;-69
2021/04/23 09:42:52;;;;;;;1.13;0.65;;;1.20;99.90;;;;;;5049897;28;20123;-69
2021/04/23 09:45:23;;;;;;;2.80;0.70;;;1.20;99.90;;;;;;5050617;28;20021;-69
2021/04/23 09:47:49;;;;;;;;;;;1.20;99.90;;;;;;5052256;28;20104;-70
2021/04/23 09:50:16;;;;;;;5.43;1.00;;;1.20;99.90;;;;;;5051647;28;19995;-68
2021/04/23 09:52:49;;;;;;;0.85;0.70;;;1.20;99.90;;;;;;5051056;28;20511;-68
2021/04/23 09:55:21;;;;;;;2.10;0.68;;;1.10;99.90;;;;;;5051697;28;20105;-68
2021/04/23 09:57:53;;;;;;;2.05;0.77;;;1.20;99.90;;;;;;5051482;28;20033;-68
2021/04/23 10:00:24;;;;;;;1.65;0.77;;;1.20;99.90;;;;;;5051331;28;20075;-68
2021/04/23 10:02:51;;;;;;;3.53;1.30;;;1.20;99.90;;;;;;5051319;28;20041;-68
2021/04/23 10:05:40;;;;;;;2.85;0.80;;;1.20;99.90;;;;;;5051374;28;20033;-68
2021/04/23 10:08:09;;;;;;;1.20;0.75;;;1.20;99.90;;;;;;5051432;28;20028;-68
2021/04/23 10:10:36;;;;;;;1.95;0.82;;;1.10;99.90;;;;;;5050653;28;20057;-68
2021/04/23 10:13:05;;;;;;;5.18;1.02;;;1.10;99.90;;;;;;5051343;28;20032;-68
2021/04/23 10:15:40;;;;;;;1.23;0.70;;;1.20;99.90;;;;;;5051195;28;20047;-67
2021/04/23 10:18:10;;;;;;;1.98;0.68;;;1.20;99.90;;;;;;5051002;28;20031;-67
2021/04/23 10:20:44;;;;;;;0.97;0.80;;;1.20;99.90;;;;;;5051246;28;20025;-67
2021/04/23 10:23:18;;;;;;;0.65;0.65;;;1.20;99.90;;;;;;5051415;28;20052;-67
2021/04/23 10:25:45;;;;;;;1.80;0.80;;;1.20;99.90;;;;;;5051166;28;20056;-67
2021/04/23 10:28:12;;;;;;;1.42;0.80;;;1.20;99.90;;;;;;5037350;28;20032;-67
2021/04/23 10:30:44;;;;;;;1.63;1.00;;;1.20;99.90;;;;;;5050842;28;20017;-66
2021/04/23 10:33:15;;;;;;;2.58;0.98;;;1.20;99.90;;;;;;5051185;28;20017;-67
2021/04/23 10:35:47;;;;;;;2.15;1.00;;;1.30;99.90;;;;;;5042919;28;20021;-68
2021/04/23 10:38:15;;;;;;;1.92;0.68;;;1.40;99.90;;;;;;5050553;28;20025;-67
2021/04/23 10:40:44;;;;;;;2.67;0.77;;;1.40;99.90;;;;;;5047112;28;20049;-67
2021/04/23 10:43:17;;;;;;;2.53;0.80;;;1.40;99.90;;;;;;5047687;28;20041;-68
2021/04/23 10:45:50;;;;;;;3.38;0.80;;;1.30;99.90;;;;;;5047562;28;20028;-67
2021/04/23 10:48:15;;;;;;;1.08;0.70;;;1.30;99.90;;;;;;5050274;28;20079;-67
2021/04/23 10:50:41;;;;;;;1.50;1.00;;;1.30;99.90;;;;;;5044583;28;20421;-67
2021/04/23 10:53:16;;;;;;;1.05;0.70;;;1.20;99.90;;;;;;5040817;28;20029;-68
2021/04/23 10:55:45;;;;;;;3.60;0.95;;;1.20;99.90;;;;;;5048662;28;20021;-68
2021/04/23 10:58:14;;;;;;;2.33;0.70;;;1.30;99.90;;;;;;5039871;28;20031;-68
2021/04/23 11:00:40;;;;;;;1.10;0.77;;;1.30;99.90;;;;;;5050371;28;20021;-69
2021/04/23 11:03:21;;;;;;;1.83;0.82;;;1.30;99.90;;;;;;5047856;28;20090;-69
2021/04/23 11:05:53;;;;;;;2.17;0.80;;;1.30;99.90;;;;;;5050450;28;20029;-69
2021/04/23 11:08:19;;;;;;;2.28;0.82;;;1.40;99.90;;;;;;5040326;28;20112;-69
2021/04/23 11:11:01;;;;;;;1.08;0.80;;;1.20;99.90;;;;;;5050573;28;20021;-69
2021/04/23 11:13:31;;;;;;;3.42;0.80;;;1.20;99.90;;;;;;5037952;28;20053;-69
2021/04/23 11:16:24;;;;;;;1.30;0.88;;;1.20;99.90;;;;;;5050440;28;20077;-69
2021/04/23 11:18:55;;;;;;;1.38;1.17;;;1.20;99.90;;;;;;5040466;28;20032;-69
2021/04/23 11:21:42;;;;;;;3.05;1.20;;;1.30;99.90;;;;;;5053184;28;20408;-69
2021/04/23 11:24:22;;;;;;;1.27;0.90;;;1.30;99.90;;;;;;5054011;28;20053;-69
2021/04/23 11:29:21;;;;;;;7.03;0.90;;;1.50;99.90;;;;;;5054402;28;20033;-69
2021/04/23 11:32:05;;;;;;;2.90;1.30;;;1.50;99.90;;;;;;5053887;28;20399;-69
2021/04/23 11:34:34;;;;;;;1.88;1.02;;;1.50;99.90;;;;;;5053799;28;20477;-70
2021/04/23 11:37:02;;;;;;;2.55;0.70;;;1.40;99.90;;;;;;5053981;28;20021;-69
2021/04/23 11:39:30;;;;;;;0.68;0.68;;;1.40;99.90;;;;;;5053885;28;20025;-69
2021/04/23 11:42:36;;;;;;;1.38;0.80;;;1.30;99.90;;;;;;5039803;28;20109;-69
2021/04/23 11:45:02;;;;;;;3.83;0.73;;;1.30;99.90;;;;;;5053039;28;20045;-69
2021/04/23 11:47:37;;;;;;;1.10;0.75;;;1.30;99.90;;;;;;5053473;28;20365;-69
2021/04/23 11:50:06;;;;;;;2.03;0.80;;;2.20;99.90;;;;;;5046556;28;20074;-68
2021/04/23 11:52:33;;;;;;;0.93;0.65;;;2.80;99.90;;;;;;5045672;28;20033;-68
2021/04/23 11:55:04;;;;;;;1.00;0.68;;;2.40;99.90;;;;;;5050454;28;20025;-67
2021/04/23 11:57:31;;;;;;;2.95;0.90;;;2.10;99.90;;;;;;5040933;28;20120;-68
2021/04/23 12:00:02;;;;;;;2.47;0.90;;;1.90;99.90;;;;;;5052607;28;20384;-68
2021/04/23 12:02:37;;;;;;;2.28;0.80;;;1.80;99.90;;;;;;5044291;28;20037;-69
2021/04/23 12:05:04;;;;;;;3.13;0.90;;;1.70;99.90;;;;;;5049647;28;20114;-68
2021/04/23 12:07:45;;;;;;;3.50;0.85;;;1.70;99.90;;;;;;5053003;28;20036;-68
2021/04/23 12:10:11;;;;;;;2.25;1.00;;;1.60;99.90;;;;;;5050720;28;20033;-68
2021/04/23 12:12:37;;;;;;;1.23;0.80;;;1.60;99.90;;;;;;5053057;28;20591;-69
2021/04/23 12:15:06;;;;;;;3.33;0.75;;;1.60;99.90;;;;;;5052844;28;20071;-69
2021/04/23 12:17:41;;;;;;;0.68;0.60;;;1.60;99.90;;;;;;5053078;28;20028;-69
2021/04/23 12:20:26;;;;;;;0.70;0.70;;;1.60;99.90;;;;;;5049291;28;20028;-68
2021/04/23 12:22:53;;;;;;;3.55;1.55;;;1.50;99.90;;;;;;5049435;28;20108;-68
2021/04/23 12:25:36;;;;;;;1.60;0.75;;;1.40;99.90;;;;;;5045706;28;20029;-68
2021/04/23 12:28:26;;;;;;;0.90;0.88;;;1.40;99.90;;;;;;5052174;28;20025;-68
2021/04/23 12:30:55;;;;;;;1.35;1.10;;;1.50;99.90;;;;;;5053170;28;20112;-68
2021/04/23 12:33:22;;;;;;;4.43;0.90;;;1.50;99.90;;;;;;5050238;28;20022;-69
2021/04/23 12:35:50;;;;;;;2.92;1.00;;;1.50;99.90;;;;;;5051457;28;20115;-69
2021/04/23 12:38:34;;;;;;;3.30;0.70;;;1.50;99.90;;;;;;5052031;28;20484;-69
2021/04/23 12:41:00;;;;;;;2.67;0.80;;;1.50;99.90;;;;;;5045969;28;20028;-69
2021/04/23 12:43:25;;;;;;;2.05;0.95;;;1.40;99.90;;;;;;5052787;28;20029;-68
2021/04/23 12:45:54;;;;;;;3.47;0.90;;;1.40;99.90;;;;;;5052739;28;20052;-68
2021/04/23 12:48:24;;;;;;;0.90;0.77;;;1.40;99.90;;;;;;5045010;28;20037;-68
2021/04/23 12:50:53;;;;;;;2.70;0.80;;;1.40;99.90;;;;;;5035835;28;20029;-68
2021/04/23 12:53:21;;;;;;;1.17;0.70;;;1.40;99.90;;;;;;5051182;28;20029;-68
2021/04/23 12:55:47;;;;;;;1.77;0.85;;;1.50;99.90;;;;;;5052434;28;20125;-68
2021/04/23 12:58:13;;;;;;;2.05;0.80;;;1.50;99.90;;;;;;5050086;28;20025;-68
2021/04/23 13:00:42;;;;;;;0.63;0.63;;;1.50;99.90;;;;;;5046120;28;20500;-68
2021/04/23 13:03:09;;;;;;;3.22;1.00;;;1.50;99.90;;;;;;5051244;28;20052;-68
2021/04/23 13:05:41;;;;;;;3.33;1.73;;;1.50;99.90;;;;;;5050233;28;20171;-69
2021/04/23 13:08:07;;;;;;;1.90;1.00;;;1.50;99.90;;;;;;5045934;28;20384;-68
2021/04/23 13:10:44;;;;;;;0.80;0.80;;;1.50;99.90;;;;;;5051531;28;20017;-68
2021/04/23 13:13:12;;;;;;;1.15;0.70;;;1.60;99.90;;;;;;5051085;28;20025;-67
2021/04/23 13:15:43;;;;;;;2.08;0.90;;;1.60;99.90;;;;;;5045676;28;20502;-67
2021/04/23 13:18:22;;;;;;;2.53;0.90;;;1.60;99.90;;;;;;5044288;28;20108;-67
2021/04/23 13:20:52;;;;;;;1.08;0.80;;;1.60;99.90;;;;;;5051639;28;20053;-67
2021/04/23 13:23:34;;;;;;;4.40;1.02;;;1.50;99.90;;;;;;5051548;28;20033;-68
2021/04/23 13:26:01;;;;;;;2.28;1.10;;;1.60;99.90;;;;;;5048818;28;20029;-67
2021/04/23 13:28:27;;;;;;;2.70;1.45;;;1.60;99.90;;;;;;5051453;28;20066;-67
2021/04/23 13:30:58;;;;;;;1.58;1.13;;;1.60;99.90;;;;;;5051173;28;20639;-67
2021/04/23 13:33:32;;;;;;;2.17;0.98;;;1.50;99.90;;;;;;5049339;28;20021;-68
2021/04/23 13:36:06;;;;;;;0.73;0.70;;;1.50;99.90;;;;;;5051455;28;20047;-67
2021/04/23 13:38:33;;;;;;;1.10;1.00;;;1.50;99.90;;;;;;5051553;28;20032;-68
2021/04/23 13:41:17;;;;;;;1.30;0.90;;;1.50;99.90;;;;;;5050777;28;20032;-68
2021/04/23 13:43:48;;;;;;;1.10;0.80;;;1.50;99.90;;;;;;5049157;28;20025;-68
2021/04/23 13:46:15;;;;;;;2.03;0.80;;;1.60;99.90;;;;;;5050653;28;20032;-67
2021/04/23 13:48:48;;;;;;;0.82;0.77;;;1.50;99.90;;;;;;5049105;28;20037;-68
2021/04/23 13:51:13;;;;;;;0.80;0.80;;;1.60;99.90;;;;;;5048872;28;20080;-68
2021/04/23 13:53:41;;;;;;;0.80;0.80;;;1.60;99.90;;;;;;5048399;28;20407;-67
2021/04/23 13:56:20;;;;;;;3.92;0.80;;;1.60;99.90;;;;;;5051411;28;20024;-67
2021/04/23 13:59:02;;;;;;;1.23;0.80;;;1.70;99.90;;;;;;5049298;28;20052;-68
2021/04/23 14:01:34;;;;;;;1.23;1.02;;;1.70;99.90;;;;;;5051354;28;20032;-68
2021/04/23 14:04:01;;;;;;;0.95;0.82;;;1.70;99.90;;;;;;5050624;28;20087;-68
2021/04/23 14:06:27;;;;;;;2.25;0.70;;;1.70;99.90;;;;;;5051288;28;20028;-68
2021/04/23 14:08:54;;;;;;;3.63;0.80;;;1.70;99.90;;;;;;5052985;28;20025;-68
2021/04/23 14:11:21;;;;;;;2.80;0.90;;;1.60;99.90;;;;;;5050928;28;20020;-68
2021/04/23 14:14:07;;;;;;;2.00;1.30;;;1.60;99.90;;;;;;5046501;28;20500;-68
2021/04/23 14:16:35;;;;;;;1.92;1.10;;;1.60;99.90;;;;;;5049942;28;20060;-68
2021/04/23 14:19:01;;;;;;;1.75;0.93;;;1.70;99.90;;;;;;5050746;28;20035;-69
2021/04/23 14:21:28;;;;;;;2.95;0.85;;;1.70;99.90;;;;;;5051002;28;20076;-68
2021/04/23 14:23:55;;;;;;;0.70;0.70;;;1.70;99.90;;;;;;5042426;28;20079;-69
2021/04/23 14:26:22;;;;;;;3.88;0.90;;;1.70;99.90;;;;;;5046424;28;20022;-69
2021/04/23 14:28:49;;;;;;;2.67;0.80;;;1.70;99.90;;;;;;5049915;28;20052;-69
2021/04/23 14:31:16;;;;;;;4.70;0.90;;;1.80;99.90;;;;;;5050695;28;20028;-69
2021/04/23 14:33:42;;;;;;;1.90;1.00;;;1.80;99.90;;;;;;5045635;28;20072;-69
2021/04/23 14:36:09;;;;;;;2.15;0.80;;;1.80;99.90;;;;;;5049022;28;20029;-69
2021/04/23 14:38:34;;;;;;;2.85;0.80;;;1.90;99.90;;;;;;5039874;28;20148;-68
2021/04/23 14:41:00;;;;;;;1.75;1.15;;;1.90;99.90;;;;;;5039025;28;20086;-69
2021/04/23 14:43:26;;;;;;;3.47;0.80;;;2.00;99.90;;;;;;5042908;28;20037;-69
2021/04/23 14:45:52;;;;;;;0.93;0.70;;;2.00;99.90;;;;;;5041869;28;20537;-69
2021/04/23 14:48:20;;;;;;;2.05;0.82;;;2.00;99.90;;;;;;5038763;28;20740;-69
2021/04/23 14:50:47;;;;;;;3.25;0.82;;;2.00;99.90;;;;;;5047185;28;20025;-69
2021/04/23 14:53:13;;;;;;;0.73;0.63;;;2.00;99.90;;;;;;5042697;28;20163;-69
2021/04/23 14:55:38;;;;;;;2.88;0.90;;;2.00;99.90;;;;;;5037636;28;20496;-70
2021/04/23 14:58:04;;;;;;;2.33;1.15;;;2.00;99.90;;;;;;5048065;28;20041;-70
2021/04/23 15:00:31;;;;;;;6.53;1.25;;;2.00;99.90;;;;;;5053148;28;20032;-69
2021/04/23 15:02:57;;;;;;;3.50;0.80;;;2.00;99.90;;;;;;5054148;28;20397;-69
2021/04/23 15:05:24;;;;;;;4.05;0.90;;;2.00;99.90;;;;;;5053813;28;20023;-69
2021/04/23 15:07:50;;;;;;;1.48;0.80;;;2.10;99.90;;;;;;5052123;28;20086;-69
2021/04/23 15:10:17;;;;;;;0.55;0.55;;;2.10;99.90;;;;;;5052767;28;20021;-69
2021/04/23 15:12:43;;;;;;;1.45;0.60;;;2.10;99.90;;;;;;5049048;28;20028;-69
2021/04/23 15:15:10;;;;;;;1.65;0.80;;;2.10;99.90;;;;;;5051253;28;20604;-69
2021/04/23 15:17:36;;;;;;;0.93;0.80;;;2.00;99.90;;;;;;5048603;28;20025;-68
2021/04/23 15:20:12;;;;;;;1.92;0.90;;;2.10;99.90;;;;;;5038057;28;20028;-67
2021/04/23 15:22:39;;;;;;;1.60;0.90;;;2.10;99.90;;;;;;5037290;28;20048;-66
2021/04/23 15:25:07;;;;;;;1.23;0.73;;;2.10;99.90;;;;;;5036558;28;20493;-67
2021/04/23 15:27:35;;;;;;;1.50;0.85;;;2.10;99.90;;;;;;5036500;28;20030;-67
2021/04/23 15:30:01;;;;;;;0.80;0.80;;;2.10;99.90;;;;;;5044648;28;20033;-67
2021/04/23 15:32:27;;;;;;;0.60;0.60;;;2.10;99.90;;;;;;5052435;28;20024;-67
2021/04/23 15:34:52;;;;;;;1.90;0.98;;;2.20;99.90;;;;;;5050149;28;20032;-68
2021/04/23 15:37:18;;;;;;;1.98;0.70;;;2.20;99.90;;;;;;5054121;28;20495;-68
2021/04/23 15:39:44;;;;;;;2.25;0.88;;;2.30;99.90;;;;;;5053776;28;20028;-70
2021/04/23 15:42:10;;;;;;;2.40;0.80;;;2.20;99.90;;;;;;5054181;28;20041;-70
2021/04/23 15:44:35;;;;;;;1.42;0.60;;;2.30;99.90;;;;;;5042851;28;20040;-70
2021/04/23 15:47:01;;;;;;;2.15;0.70;;;2.60;99.90;;;;;;5050808;28;20500;-70
2021/04/23 15:49:27;;;;;;;2.35;0.80;;;2.50;99.90;;;;;;5053931;28;20108;-70
2021/04/23 15:51:53;;;;;;;1.05;0.70;;;2.50;99.90;;;;;;5049370;28;20161;-70
2021/04/23 15:54:19;;;;;;;3.00;0.80;;;2.40;99.90;;;;;;5052305;28;20071;-70
2021/04/23 15:56:45;;;;;;;1.55;0.70;;;2.30;99.90;;;;;;5054069;28;20122;-70
2021/04/23 15:59:11;;;;;;;3.05;0.77;;;2.30;99.90;;;;;;5054007;28;20366;-70
2021/04/23 16:01:36;;;;;;;1.13;0.80;;;2.30;99.90;;;;;;5053959;28;20029;-70
2021/04/23 16:04:03;;;;;;;1.17;0.90;;;2.30;99.90;;;;;;5053670;28;20037;-69
2021/04/23 16:06:29;;;;;;;0.60;0.60;;;2.40;99.90;;;;;;5052967;28;20052;-70
2021/04/23 16:08:55;;;;;;;0.70;0.57;;;2.90;99.90;;;;;;5047493;28;20021;-71
2021/04/23 16:11:21;;;;;;;2.08;0.63;;;4.20;99.90;;;;;;5044828;28;20031;-68
2021/04/23 16:13:47;;;;;;;1.60;0.57;;;4.10;99.90;;;;;;5053253;28;20071;-72
2021/04/23 16:16:13;;;;;;;0.65;0.60;;;4.30;99.90;;;;;;5045771;28;20049;-70
2021/04/23 16:18:39;;;;;;;0.85;0.52;;;4.20;99.90;;;;;;5049659;28;20376;-70
2021/04/23 16:21:05;;;;;;;1.23;0.60;;;3.80;99.90;;;;;;5052356;28;20055;-70
2021/04/23 16:23:31;;;;;;;0.73;0.45;;;3.40;99.90;;;;;;5052240;28;20034;-70
2021/04/23 16:25:57;;;;;;;1.15;0.75;;;3.10;99.90;;;;;;5052879;28;20460;-70
2021/04/23 16:28:23;;;;;;;1.58;0.80;;;2.90;99.90;;;;;;5053701;28;20107;-70
2021/04/23 16:30:49;;;;;;;2.65;1.10;;;2.90;99.90;;;;;;5051897;28;20108;-70
2021/04/23 16:33:15;;;;;;;2.08;0.93;;;2.80;99.90;;;;;;5050132;28;20044;-70
2021/04/23 16:35:41;;;;;;;0.75;0.70;;;2.70;99.90;;;;;;5050953;28;20017;-70
2021/04/23 16:38:06;;;;;;;2.00;0.80;;;2.70;99.90;;;;;;5052806;28;20040;-70
2021/04/23 16:40:33;;;;;;;1.67;0.85;;;2.60;99.90;;;;;;5049415;28;20022;-68
2021/04/23 16:43:00;;;;;;;0.77;0.75;;;2.60;99.90;;;;;;5053133;28;20052;-70
2021/04/23 16:45:30;;;;;;;2.70;0.95;;;2.50;99.90;;;;;;5050966;28;20043;-70
2021/04/23 16:47:57;;;;;;;1.97;1.07;;;2.50;99.90;;;;;;5046027;28;20029;-68
2021/04/23 16:50:23;;;;;;;1.17;0.98;;;2.40;99.90;;;;;;5052645;28;20447;-70
2021/04/23 16:52:49;;;;;;;7.20;2.72;;;2.50;99.90;;;;;;5052308;28;20025;-70
2021/04/23 16:55:16;;;;;;;3.47;1.70;;;2.40;99.90;;;;;;5052853;28;20032;-70
2021/04/23 16:57:43;;;;;;;14.65;4.82;;;2.40;99.90;;;;;;5048480;28;20032;-70
2021/04/23 17:00:12;;;;;;;5.10;1.90;;;2.40;99.90;;;;;;5052144;28;20070;-70
2021/04/23 17:02:38;;;;;;;4.05;1.08;;;2.40;99.90;;;;;;5052384;28;20082;-70
2021/04/23 17:05:04;;;;;;;2.28;1.08;;;2.40;99.90;;;;;;5047265;28;20029;-70
2021/04/23 17:07:30;;;;;;;4.07;0.90;;;2.40;99.90;;;;;;5047378;28;20036;-70
2021/04/23 17:09:56;;;;;;;1.55;0.80;;;2.40;99.90;;;;;;5045835;28;20104;-71
2021/04/23 17:12:22;;;;;;;0.75;0.60;;;2.40;99.90;;;;;;5045073;28;20025;-70
2021/04/23 17:14:47;;;;;;;1.27;0.90;;;2.40;99.90;;;;;;5051832;28;20616;-70
2021/04/23 17:17:13;;;;;;;3.85;0.90;;;2.30;99.90;;;;;;5052551;28;20037;-70
2021/04/23 17:19:39;;;;;;;1.33;0.82;;;2.30;99.90;;;;;;5051710;28;20487;-69